Terminal Aerodrome Forecast
Issued by NWS Pendleton, OR

Home | Current Version | Previous Version | Text Only | Print | Product List | Glossary On
Versions: 1 2 3 4 5 6 7 8 9 10 11 12 13 14 15 16
000
FTUS46 KPDT 301700
TAFPDT
TAF
KPDT 301735Z 3018/3118 25005KT P6SM BKN200
     FM302100 32008KT P6SM BKN200
     FM310200 22007KT P6SM SCT100 SCT200
     FM310900 23010KT P6SM -SHRA SCT050 BKN070 OVC100
     FM311600 26014G23KT P6SM VCSH SCT050 BKN090=

USA.gov is the U.S. government's official web portal to all federal, state and local government web resources and services.